Time;durP1;ratioP1;P1;durP2;ratioP2;P2;SDS_P1;SDS_P2;PMS_P1;PMS_P2;Temp;Humidity;BMP_temperature;BMP_pressure;BME280_temperature;BME280_humidity;BME280_pressure;Samples;Min_cycle;Max_cycle;Signal;HPM_P1;HPM_P2
2023/03/21 00:02:04;;;;;;;54.00;20.83;;;;;;;;;;5015429;28;20397;-74
2023/03/21 00:04:30;;;;;;;47.50;21.05;;;;;;;;;;5033618;28;20040;-75
2023/03/21 00:06:56;;;;;;;45.63;17.35;;;;;;;;;;5015830;28;20485;-75
2023/03/21 00:09:23;;;;;;;53.05;19.38;;;;;;;;;;5014035;28;20045;-75
2023/03/21 00:11:49;;;;;;;45.45;19.02;;;;;;;;;;5028977;28;20141;-74
2023/03/21 00:14:17;;;;;;;42.45;19.20;;;;;;;;;;5013102;28;20127;-75
2023/03/21 00:16:44;;;;;;;48.47;21.02;;;;;;;;;;5033183;28;20049;-74
2023/03/21 00:19:11;;;;;;;45.70;20.50;;;;;;;;;;5014531;28;20075;-74
2023/03/21 00:21:41;;;;;;;43.10;20.38;;;;;;;;;;5017831;28;20095;-74
2023/03/21 00:24:07;;;;;;;46.55;19.27;;;;;;;;;;5013752;28;20053;-74
2023/03/21 00:26:33;;;;;;;41.03;18.63;;;;;;;;;;5031874;28;20049;-74
2023/03/21 00:28:59;;;;;;;40.67;18.05;;;;;;;;;;5012858;28;20106;-74
2023/03/21 00:31:26;;;;;;;45.28;19.70;;;;;;;;;;5031874;28;20054;-74
2023/03/21 00:33:52;;;;;;;35.50;19.05;;;;;;;;;;5017365;28;20037;-74
2023/03/21 00:36:18;;;;;;;41.30;18.77;;;;;;;;;;5031684;28;20081;-74
2023/03/21 00:38:44;;;;;;;46.83;19.63;;;;;;;;;;5017376;28;20049;-74
2023/03/21 00:41:13;;;;;;;40.60;18.38;;;;;;;;;;5016790;28;20100;-74
2023/03/21 00:43:40;;;;;;;39.75;18.95;;;;;;;;;;5032624;28;20059;-74
2023/03/21 00:46:06;;;;;;;47.88;20.63;;;;;;;;;;5026199;28;20154;-74
2023/03/21 00:48:32;;;;;;;46.42;19.60;;;;;;;;;;5015414;28;20477;-74
2023/03/21 00:50:59;;;;;;;39.55;18.90;;;;;;;;;;5026404;28;20456;-74
2023/03/21 00:53:25;;;;;;;36.53;18.45;;;;;;;;;;5034064;28;20071;-74
2023/03/21 00:55:51;;;;;;;45.17;19.50;;;;;;;;;;5019345;28;20064;-74
2023/03/21 00:58:18;;;;;;;41.80;18.70;;;;;;;;;;5018262;28;20049;-74
2023/03/21 01:00:45;;;;;;;42.40;19.58;;;;;;;;;;5030566;28;20048;-74
2023/03/21 01:03:12;;;;;;;37.55;17.08;;;;;;;;;;5014196;28;20079;-74
2023/03/21 01:08:26;;;;;;;43.70;20.17;;;;;;;;;;5019027;28;20833;-74
2023/03/21 01:10:52;;;;;;;39.25;19.48;;;;;;;;;;5028765;28;20060;-74
2023/03/21 01:13:20;;;;;;;35.75;20.17;;;;;;;;;;5014169;28;20048;-74
2023/03/21 01:15:47;;;;;;;39.65;18.73;;;;;;;;;;5011393;28;20112;-74
2023/03/21 01:18:14;;;;;;;36.03;19.38;;;;;;;;;;5029750;28;20068;-74
2023/03/21 01:20:40;;;;;;;49.45;22.13;;;;;;;;;;5016413;28;20046;-74
2023/03/21 01:23:07;;;;;;;47.10;23.52;;;;;;;;;;5026516;28;20534;-75
2023/03/21 01:25:33;;;;;;;45.65;22.00;;;;;;;;;;5032680;28;20056;-74
2023/03/21 01:27:59;;;;;;;48.40;21.70;;;;;;;;;;5011660;28;20109;-74
2023/03/21 01:30:25;;;;;;;41.00;20.85;;;;;;;;;;5045286;28;20775;-74
2023/03/21 01:32:51;;;;;;;42.85;21.10;;;;;;;;;;5015100;28;20049;-74
2023/03/21 01:35:17;;;;;;;47.17;21.00;;;;;;;;;;5031839;28;20507;-74
2023/03/21 01:37:43;;;;;;;46.95;21.63;;;;;;;;;;5012335;28;20045;-74
2023/03/21 01:40:13;;;;;;;46.30;22.42;;;;;;;;;;5027747;28;20038;-74
2023/03/21 01:42:39;;;;;;;41.67;20.52;;;;;;;;;;5031135;28;20175;-74
2023/03/21 01:45:07;;;;;;;43.83;20.73;;;;;;;;;;5011767;28;20124;-74
2023/03/21 01:47:33;;;;;;;39.90;19.98;;;;;;;;;;5019918;28;20049;-74
2023/03/21 01:50:02;;;;;;;43.95;21.35;;;;;;;;;;5018420;28;20045;-74
2023/03/21 01:52:34;;;;;;;46.80;22.33;;;;;;;;;;5019352;28;20041;-74
2023/03/21 01:55:02;;;;;;;43.25;21.08;;;;;;;;;;5012626;28;20065;-74
2023/03/21 01:57:33;;;;;;;51.47;22.33;;;;;;;;;;5026920;28;20057;-74
2023/03/21 02:00:10;;;;;;;49.00;21.75;;;;;;;;;;5009438;28;20059;-74
2023/03/21 02:02:37;;;;;;;43.08;19.70;;;;;;;;;;5031464;28;20454;-74
2023/03/21 02:05:03;;;;;;;57.30;23.35;;;;;;;;;;5029907;28;20045;-74
2023/03/21 02:07:34;;;;;;;57.83;22.38;;;;;;;;;;5016577;28;20075;-74
2023/03/21 02:10:01;;;;;;;62.35;20.67;;;;;;;;;;5013250;28;20103;-74
2023/03/21 02:12:27;;;;;;;55.58;20.15;;;;;;;;;;5031338;28;20566;-74
2023/03/21 02:14:55;;;;;;;71.80;20.98;;;;;;;;;;5016598;28;20481;-74
2023/03/21 02:17:21;;;;;;;62.38;21.23;;;;;;;;;;5032918;28;20045;-74
2023/03/21 02:20:07;;;;;;;65.22;21.20;;;;;;;;;;5029247;28;20526;-74
2023/03/21 02:22:39;;;;;;;62.45;20.90;;;;;;;;;;5018693;28;20060;-74
2023/03/21 02:25:11;;;;;;;69.20;22.77;;;;;;;;;;5012618;28;20045;-74
2023/03/21 02:27:46;;;;;;;71.05;22.33;;;;;;;;;;5031281;28;20397;-74
2023/03/21 02:30:35;;;;;;;58.50;19.83;;;;;;;;;;5030190;28;20591;-74
2023/03/21 02:33:22;;;;;;;66.22;22.50;;;;;;;;;;5032322;28;20053;-74
2023/03/21 02:36:00;;;;;;;65.47;22.25;;;;;;;;;;5033092;28;20489;-74
2023/03/21 02:38:35;;;;;;;77.22;24.27;;;;;;;;;;5030081;28;20041;-74
2023/03/21 02:41:04;;;;;;;59.38;22.40;;;;;;;;;;5047501;28;20064;-74
2023/03/21 02:43:43;;;;;;;62.88;23.35;;;;;;;;;;5049012;28;20048;-74
2023/03/21 02:46:14;;;;;;;52.35;22.65;;;;;;;;;;5020411;28;20121;-74
2023/03/21 02:48:46;;;;;;;52.60;22.92;;;;;;;;;;5021501;28;20050;-74
2023/03/21 02:51:14;;;;;;;50.45;21.52;;;;;;;;;;5026226;28;20045;-74
2023/03/21 02:53:42;;;;;;;56.67;24.15;;;;;;;;;;5020399;28;20519;-74
2023/03/21 02:56:09;;;;;;;58.20;24.05;;;;;;;;;;5031886;28;20084;-74
2023/03/21 02:58:37;;;;;;;51.92;22.10;;;;;;;;;;5036271;28;20052;-74
2023/03/21 03:01:03;;;;;;;52.50;22.75;;;;;;;;;;5038729;28;20427;-74
2023/03/21 03:03:29;;;;;;;50.45;22.98;;;;;;;;;;5043329;28;20040;-74
2023/03/21 03:05:56;;;;;;;50.03;22.02;;;;;;;;;;5036060;28;20044;-74
2023/03/21 03:08:34;;;;;;;54.95;22.02;;;;;;;;;;5037452;28;20049;-75
2023/03/21 03:11:19;;;;;;;53.17;23.08;;;;;;;;;;5033820;28;20049;-75
2023/03/21 03:13:48;;;;;;;44.33;22.05;;;;;;;;;;5032316;28;20084;-75
2023/03/21 03:16:35;;;;;;;42.63;21.55;;;;;;;;;;5016119;28;20049;-74
2023/03/21 03:19:03;;;;;;;51.28;21.70;;;;;;;;;;5013978;28;20060;-75
2023/03/21 03:21:32;;;;;;;43.78;21.50;;;;;;;;;;5013064;28;20103;-74
2023/03/21 03:24:08;;;;;;;52.40;24.05;;;;;;;;;;5018053;28;20059;-74
2023/03/21 03:26:34;;;;;;;41.50;19.98;;;;;;;;;;5033550;28;20117;-75
2023/03/21 03:29:08;;;;;;;46.88;21.50;;;;;;;;;;5019685;28;20060;-75
2023/03/21 03:31:36;;;;;;;44.05;21.10;;;;;;;;;;5034769;28;20038;-75
2023/03/21 03:34:08;;;;;;;46.42;22.60;;;;;;;;;;5014859;28;20052;-74
2023/03/21 03:36:37;;;;;;;44.85;22.73;;;;;;;;;;5029661;28;20045;-75
2023/03/21 03:39:05;;;;;;;49.85;21.27;;;;;;;;;;5031809;28;20038;-75
2023/03/21 03:41:35;;;;;;;53.50;22.48;;;;;;;;;;5016036;28;20127;-74
2023/03/21 03:44:02;;;;;;;61.63;22.38;;;;;;;;;;5013522;28;20073;-74
2023/03/21 03:46:48;;;;;;;59.90;21.15;;;;;;;;;;5032955;28;20397;-75
2023/03/21 03:49:21;;;;;;;67.85;24.88;;;;;;;;;;5002719;28;20127;-74
2023/03/21 03:51:56;;;;;;;68.55;23.20;;;;;;;;;;5013914;28;20095;-74
2023/03/21 03:54:24;;;;;;;54.90;21.42;;;;;;;;;;5019301;28;20061;-74
2023/03/21 03:56:50;;;;;;;54.08;21.38;;;;;;;;;;5012063;28;20128;-74
2023/03/21 03:59:23;;;;;;;59.28;23.20;;;;;;;;;;5011440;28;20059;-74
2023/03/21 04:01:50;;;;;;;46.90;21.60;;;;;;;;;;5032295;28;20485;-74
2023/03/21 04:04:16;;;;;;;45.67;20.73;;;;;;;;;;5011156;28;20069;-74
2023/03/21 04:06:44;;;;;;;44.63;19.92;;;;;;;;;;5016470;28;20041;-74
2023/03/21 04:09:11;;;;;;;48.53;19.83;;;;;;;;;;5036575;28;20048;-74
2023/03/21 04:11:37;;;;;;;41.83;18.73;;;;;;;;;;5029326;28;20045;-74
2023/03/21 04:14:03;;;;;;;42.10;18.90;;;;;;;;;;5028852;28;20041;-74
2023/03/21 04:16:31;;;;;;;43.38;19.60;;;;;;;;;;5030242;28;20508;-73
2023/03/21 04:18:57;;;;;;;50.95;20.10;;;;;;;;;;5029556;28;20041;-74
2023/03/21 04:21:23;;;;;;;38.05;18.10;;;;;;;;;;5014962;28;20052;-74
2023/03/21 04:23:49;;;;;;;44.50;18.48;;;;;;;;;;5012624;28;20041;-74
2023/03/21 04:26:15;;;;;;;44.33;18.05;;;;;;;;;;5018730;28;20080;-74
2023/03/21 04:28:41;;;;;;;47.10;18.92;;;;;;;;;;5010202;28;20083;-74
2023/03/21 04:31:12;;;;;;;37.35;17.55;;;;;;;;;;5011378;28;20124;-74
2023/03/21 04:33:38;;;;;;;38.97;17.08;;;;;;;;;;5027847;28;20048;-74
2023/03/21 04:36:08;;;;;;;29.98;14.50;;;;;;;;;;5028620;28;20033;-74
2023/03/21 04:38:35;;;;;;;34.50;16.85;;;;;;;;;;5046824;28;20045;-74
2023/03/21 04:41:01;;;;;;;33.08;16.55;;;;;;;;;;5036160;28;20100;-74
2023/03/21 04:43:27;;;;;;;31.52;16.20;;;;;;;;;;5039213;28;20565;-74
2023/03/21 04:45:54;;;;;;;32.92;16.30;;;;;;;;;;5020846;28;20053;-74
2023/03/21 04:48:23;;;;;;;28.42;15.75;;;;;;;;;;5027471;28;20057;-74
2023/03/21 04:50:49;;;;;;;32.45;15.32;;;;;;;;;;5020776;28;20037;-74
2023/03/21 04:53:15;;;;;;;33.83;16.33;;;;;;;;;;5015538;28;20056;-74
2023/03/21 04:55:41;;;;;;;33.08;17.35;;;;;;;;;;5019045;28;20061;-74
2023/03/21 04:58:07;;;;;;;35.15;17.40;;;;;;;;;;5015728;28;20129;-74
2023/03/21 05:00:37;;;;;;;29.30;16.13;;;;;;;;;;5012317;28;20073;-74
2023/03/21 05:03:07;;;;;;;30.17;15.93;;;;;;;;;;5010364;28;20069;-74
2023/03/21 05:05:34;;;;;;;36.25;15.63;;;;;;;;;;5012347;28;20050;-74
2023/03/21 05:08:00;;;;;;;30.35;16.83;;;;;;;;;;5015572;28;20052;-74
2023/03/21 05:10:26;;;;;;;34.88;17.55;;;;;;;;;;5017270;28;20069;-74
2023/03/21 05:12:52;;;;;;;37.40;17.48;;;;;;;;;;5017551;28;20122;-74
2023/03/21 05:15:18;;;;;;;27.52;16.27;;;;;;;;;;5010904;28;20089;-74
2023/03/21 05:17:47;;;;;;;25.65;14.82;;;;;;;;;;5012507;28;20053;-74
2023/03/21 05:20:16;;;;;;;27.80;15.93;;;;;;;;;;5011637;28;20512;-74
2023/03/21 05:22:44;;;;;;;30.30;16.42;;;;;;;;;;5014678;28;20053;-74
2023/03/21 05:25:11;;;;;;;31.20;15.20;;;;;;;;;;5017229;28;20519;-74
2023/03/21 05:27:37;;;;;;;33.83;16.08;;;;;;;;;;5018399;28;20042;-74
2023/03/21 05:30:03;;;;;;;23.17;12.40;;;;;;;;;;5017257;28;20057;-74
2023/03/21 05:32:29;;;;;;;21.75;13.38;;;;;;;;;;5012530;28;20072;-74
2023/03/21 05:34:55;;;;;;;19.23;12.02;;;;;;;;;;5016148;28;20120;-74
2023/03/21 05:37:21;;;;;;;19.27;11.50;;;;;;;;;;5012217;28;20054;-74
2023/03/21 05:39:47;;;;;;;20.48;11.55;;;;;;;;;;5015592;28;20042;-74
2023/03/21 05:42:13;;;;;;;20.48;11.90;;;;;;;;;;5016664;28;20057;-74
2023/03/21 05:44:39;;;;;;;23.50;12.30;;;;;;;;;;5023331;28;20412;-74
2023/03/21 05:47:06;;;;;;;18.10;12.18;;;;;;;;;;5024522;28;20051;-74
2023/03/21 05:49:32;;;;;;;21.75;12.32;;;;;;;;;;5014402;28;20042;-74
2023/03/21 05:51:58;;;;;;;20.15;11.38;;;;;;;;;;5013383;28;20387;-74
2023/03/21 05:54:24;;;;;;;14.23;9.80;;;;;;;;;;5020915;28;20632;-74
2023/03/21 05:56:50;;;;;;;19.92;11.45;;;;;;;;;;5022192;28;20072;-74
2023/03/21 05:59:16;;;;;;;22.50;11.30;;;;;;;;;;5018880;28;20076;-74
2023/03/21 06:01:42;;;;;;;19.38;10.57;;;;;;;;;;5021562;28;20052;-74
2023/03/21 06:04:10;;;;;;;19.77;12.35;;;;;;;;;;5014448;28;20041;-74
2023/03/21 06:06:36;;;;;;;20.65;10.85;;;;;;;;;;5034635;28;20892;-74
2023/03/21 06:09:02;;;;;;;19.52;11.45;;;;;;;;;;5019825;28;20081;-74
2023/03/21 06:11:30;;;;;;;23.00;12.88;;;;;;;;;;5014220;28;20135;-74
2023/03/21 06:13:56;;;;;;;24.25;13.00;;;;;;;;;;5030136;28;20421;-74
2023/03/21 06:16:22;;;;;;;24.23;13.73;;;;;;;;;;5036015;28;20768;-74
2023/03/21 06:18:48;;;;;;;26.63;17.08;;;;;;;;;;5015346;28;21695;-74
2023/03/21 06:21:14;;;;;;;20.88;13.98;;;;;;;;;;5030124;28;20049;-74
2023/03/21 06:23:40;;;;;;;23.60;14.27;;;;;;;;;;5017623;28;20445;-74
2023/03/21 06:26:07;;;;;;;21.90;14.85;;;;;;;;;;5015213;28;20060;-74
2023/03/21 06:28:33;;;;;;;22.30;14.25;;;;;;;;;;5034514;28;20044;-74
2023/03/21 06:30:59;;;;;;;22.48;13.77;;;;;;;;;;5030220;28;20049;-74
2023/03/21 06:33:25;;;;;;;19.80;12.90;;;;;;;;;;5035240;28;20049;-74
2023/03/21 06:35:55;;;;;;;21.50;13.18;;;;;;;;;;5014016;28;20045;-74
2023/03/21 06:38:21;;;;;;;18.80;12.35;;;;;;;;;;5026165;28;20103;-74
2023/03/21 06:40:47;;;;;;;20.02;12.27;;;;;;;;;;5038828;28;20048;-74
2023/03/21 06:43:15;;;;;;;17.45;12.45;;;;;;;;;;5040078;28;20543;-74
2023/03/21 06:45:41;;;;;;;17.35;11.00;;;;;;;;;;5036226;28;20037;-73
2023/03/21 06:48:07;;;;;;;17.48;11.80;;;;;;;;;;5013797;28;20050;-74
2023/03/21 06:50:34;;;;;;;15.27;9.90;;;;;;;;;;5043857;28;20072;-74
2023/03/21 06:53:00;;;;;;;13.95;9.77;;;;;;;;;;5038390;28;20425;-73
2023/03/21 06:55:27;;;;;;;14.98;10.30;;;;;;;;;;5040099;28;20045;-74
2023/03/21 06:57:54;;;;;;;13.02;9.57;;;;;;;;;;5016623;28;20489;-74
2023/03/21 07:00:20;;;;;;;16.20;9.95;;;;;;;;;;5022150;28;20053;-74
2023/03/21 07:02:47;;;;;;;14.70;10.13;;;;;;;;;;5036873;28;20041;-74
2023/03/21 07:05:13;;;;;;;17.35;9.10;;;;;;;;;;5020349;28;20397;-74
2023/03/21 07:07:39;;;;;;;15.10;9.55;;;;;;;;;;5042784;28;20057;-74
2023/03/21 07:10:05;;;;;;;18.08;9.57;;;;;;;;;;5019168;28;20049;-74
2023/03/21 07:12:33;;;;;;;14.95;10.00;;;;;;;;;;5022415;28;20060;-74
2023/03/21 07:14:59;;;;;;;13.35;9.35;;;;;;;;;;5021905;28;20042;-74
2023/03/21 07:17:26;;;;;;;16.45;10.65;;;;;;;;;;5035555;28;21750;-74
2023/03/21 07:19:52;;;;;;;19.70;10.23;;;;;;;;;;5032466;28;20051;-74
2023/03/21 07:22:18;;;;;;;13.90;9.57;;;;;;;;;;5034878;28;20094;-74
2023/03/21 07:24:47;;;;;;;14.60;8.80;;;;;;;;;;5031577;28;20041;-74
2023/03/21 07:27:13;;;;;;;13.48;9.05;;;;;;;;;;5029965;28;20057;-74
2023/03/21 07:29:40;;;;;;;15.30;10.02;;;;;;;;;;5022013;28;20044;-74
2023/03/21 07:32:06;;;;;;;15.07;9.88;;;;;;;;;;5033135;28;20046;-74
2023/03/21 07:34:32;;;;;;;18.88;10.77;;;;;;;;;;5031415;28;20037;-74
2023/03/21 07:36:59;;;;;;;14.57;10.25;;;;;;;;;;5011300;28;20057;-74
2023/03/21 07:39:26;;;;;;;15.88;10.93;;;;;;;;;;5013958;28;20099;-74
2023/03/21 07:41:54;;;;;;;15.65;10.20;;;;;;;;;;5031019;28;20052;-75
2023/03/21 07:44:20;;;;;;;18.13;11.55;;;;;;;;;;5060079;28;20526;-74
2023/03/21 07:46:46;;;;;;;19.17;11.20;;;;;;;;;;5058570;28;20109;-74
2023/03/21 07:49:12;;;;;;;17.00;10.70;;;;;;;;;;5022103;28;20143;-74
2023/03/21 07:51:38;;;;;;;19.02;10.88;;;;;;;;;;5043215;28;20037;-74
2023/03/21 07:54:05;;;;;;;24.30;11.50;;;;;;;;;;5031452;28;20524;-74
2023/03/21 07:56:31;;;;;;;14.98;10.07;;;;;;;;;;5049023;28;20093;-74
2023/03/21 07:58:58;;;;;;;15.35;9.93;;;;;;;;;;5026805;28;20037;-74
2023/03/21 08:01:24;;;;;;;12.73;8.05;;;;;;;;;;5049807;28;20111;-74
2023/03/21 08:03:52;;;;;;;13.60;8.38;;;;;;;;;;5014606;28;20068;-74
2023/03/21 08:06:19;;;;;;;15.13;8.25;;;;;;;;;;5022710;28;20073;-74
2023/03/21 08:08:45;;;;;;;12.43;7.60;;;;;;;;;;5023205;28;20041;-74
2023/03/21 08:11:11;;;;;;;14.40;8.52;;;;;;;;;;5032549;28;20081;-75
2023/03/21 08:13:37;;;;;;;15.07;8.27;;;;;;;;;;5040385;28;20068;-74
2023/03/21 08:16:04;;;;;;;13.25;8.77;;;;;;;;;;5018942;28;20052;-74
2023/03/21 08:18:30;;;;;;;14.02;8.80;;;;;;;;;;5033777;28;20052;-75
2023/03/21 08:20:57;;;;;;;12.23;8.65;;;;;;;;;;5014906;28;20040;-75
2023/03/21 08:23:23;;;;;;;13.60;8.13;;;;;;;;;;5015319;28;20044;-74
2023/03/21 08:25:53;;;;;;;15.52;9.35;;;;;;;;;;5040240;28;20075;-75
2023/03/21 08:28:19;;;;;;;18.60;11.30;;;;;;;;;;5052862;28;20041;-74
2023/03/21 08:30:46;;;;;;;18.30;11.68;;;;;;;;;;5024104;28;20049;-74
2023/03/21 08:33:14;;;;;;;21.48;14.55;;;;;;;;;;5015816;28;20076;-75
2023/03/21 08:35:41;;;;;;;24.70;15.85;;;;;;;;;;5032007;28;20051;-75
2023/03/21 08:38:07;;;;;;;19.30;14.35;;;;;;;;;;5052338;28;20049;-76
2023/03/21 08:40:33;;;;;;;27.50;18.17;;;;;;;;;;5045803;28;20069;-75
2023/03/21 08:42:59;;;;;;;24.45;17.88;;;;;;;;;;5020706;28;20050;-74
2023/03/21 08:45:26;;;;;;;25.38;16.52;;;;;;;;;;5014892;28;20334;-74
2023/03/21 08:47:52;;;;;;;29.02;20.35;;;;;;;;;;5013668;28;20438;-74
2023/03/21 08:50:23;;;;;;;28.58;21.50;;;;;;;;;;5014872;28;20045;-74
2023/03/21 08:52:50;;;;;;;30.05;20.40;;;;;;;;;;5011957;28;21036;-74
2023/03/21 08:55:16;;;;;;;33.13;23.90;;;;;;;;;;5013708;28;20037;-74
2023/03/21 08:57:43;;;;;;;32.25;22.35;;;;;;;;;;5032004;28;20064;-74
2023/03/21 09:00:13;;;;;;;38.10;25.67;;;;;;;;;;5022779;28;20147;-74
2023/03/21 09:02:40;;;;;;;36.83;25.58;;;;;;;;;;5022140;28;20083;-74
2023/03/21 09:05:06;;;;;;;34.55;24.58;;;;;;;;;;5014903;28;20042;-75
2023/03/21 09:07:35;;;;;;;35.47;25.05;;;;;;;;;;5031172;28;20045;-75
2023/03/21 09:10:01;;;;;;;32.70;23.98;;;;;;;;;;5015954;28;20060;-74
2023/03/21 09:12:27;;;;;;;35.85;24.05;;;;;;;;;;5005989;28;20064;-74
2023/03/21 09:14:53;;;;;;;35.53;24.25;;;;;;;;;;5008084;28;20049;-75
2023/03/21 09:17:19;;;;;;;44.35;25.08;;;;;;;;;;5016713;28;20042;-75
2023/03/21 09:19:46;;;;;;;35.65;25.10;;;;;;;;;;5009059;28;20038;-75
2023/03/21 09:22:16;;;;;;;38.47;25.83;;;;;;;;;;5010191;28;20041;-75
2023/03/21 09:24:46;;;;;;;35.63;25.40;;;;;;;;;;5010759;28;20049;-75
2023/03/21 09:27:24;;;;;;;39.78;25.15;;;;;;;;;;5005572;28;21726;-75
2023/03/21 09:29:50;;;;;;;35.10;24.63;;;;;;;;;;5013625;28;20111;-75
2023/03/21 09:32:17;;;;;;;35.97;25.13;;;;;;;;;;5008789;28;20049;-75
2023/03/21 09:34:43;;;;;;;37.55;23.27;;;;;;;;;;5013903;28;20042;-74
2023/03/21 09:37:10;;;;;;;32.42;22.10;;;;;;;;;;5009823;28;20080;-75
2023/03/21 09:39:36;;;;;;;27.60;17.70;;;;;;;;;;5013403;28;20056;-75
2023/03/21 09:42:05;;;;;;;30.73;18.83;;;;;;;;;;5014118;28;20818;-75
2023/03/21 09:44:37;;;;;;;30.77;19.15;;;;;;;;;;5012751;28;20121;-75
2023/03/21 09:47:27;;;;;;;29.02;20.33;;;;;;;;;;5011228;28;20049;-74
2023/03/21 09:49:53;;;;;;;29.48;18.90;;;;;;;;;;5012333;28;20050;-75
2023/03/21 09:52:46;;;;;;;28.45;18.85;;;;;;;;;;4951981;28;20049;-75
2023/03/21 09:55:25;;;;;;;31.88;18.13;;;;;;;;;;4977486;28;20064;-75
2023/03/21 09:57:59;;;;;;;29.42;18.00;;;;;;;;;;5002333;28;20119;-75
2023/03/21 10:00:28;;;;;;;28.20;17.20;;;;;;;;;;5001547;28;20077;-75
2023/03/21 10:02:58;;;;;;;23.58;15.32;;;;;;;;;;4997994;28;20046;-75
2023/03/21 10:05:29;;;;;;;22.75;15.23;;;;;;;;;;4998418;28;20117;-75
2023/03/21 10:07:58;;;;;;;20.13;13.75;;;;;;;;;;4994836;28;20101;-75
2023/03/21 10:10:29;;;;;;;21.02;14.18;;;;;;;;;;4998887;28;20070;-75
2023/03/21 10:12:56;;;;;;;20.90;12.65;;;;;;;;;;4998459;28;20124;-75
2023/03/21 10:15:24;;;;;;;20.33;13.35;;;;;;;;;;4999254;28;20589;-75
2023/03/21 10:17:59;;;;;;;17.77;13.18;;;;;;;;;;5002470;28;20938;-75
2023/03/21 10:20:30;;;;;;;20.10;12.88;;;;;;;;;;4997823;28;20042;-75
2023/03/21 10:22:58;;;;;;;17.60;12.70;;;;;;;;;;5000252;28;20038;-75
2023/03/21 10:25:35;;;;;;;21.83;12.63;;;;;;;;;;4992888;28;20045;-75
2023/03/21 10:28:02;;;;;;;19.40;12.15;;;;;;;;;;4996239;28;20049;-75
2023/03/21 10:30:37;;;;;;;20.33;11.70;;;;;;;;;;5000832;28;21782;-75
2023/03/21 10:33:08;;;;;;;21.05;12.15;;;;;;;;;;4999547;28;20421;-75
2023/03/21 10:35:35;;;;;;;19.65;11.73;;;;;;;;;;4999633;28;20553;-75
2023/03/21 10:38:02;;;;;;;19.08;11.55;;;;;;;;;;4999112;28;20046;-74
2023/03/21 10:40:28;;;;;;;17.38;11.55;;;;;;;;;;5000352;28;20061;-74
2023/03/21 10:43:14;;;;;;;17.15;11.75;;;;;;;;;;5003875;28;20069;-74
2023/03/21 10:45:40;;;;;;;21.27;12.02;;;;;;;;;;5004262;28;20038;-78
2023/03/21 10:48:09;;;;;;;18.30;11.85;;;;;;;;;;4996220;28;20046;-74
2023/03/21 10:50:35;;;;;;;18.27;11.88;;;;;;;;;;5015345;28;20083;-74
2023/03/21 10:53:02;;;;;;;15.77;11.18;;;;;;;;;;4999340;28;20072;-75
2023/03/21 10:55:34;;;;;;;18.27;13.57;;;;;;;;;;5016208;28;20056;-74
2023/03/21 10:58:09;;;;;;;20.67;13.32;;;;;;;;;;5020862;28;20050;-74
2023/03/21 11:00:40;;;;;;;18.98;12.75;;;;;;;;;;5036950;28;20037;-74
2023/03/21 11:03:08;;;;;;;18.58;13.18;;;;;;;;;;5024115;28;20049;-74
2023/03/21 11:05:36;;;;;;;18.95;12.93;;;;;;;;;;5048383;28;20057;-74
2023/03/21 11:08:05;;;;;;;18.17;12.68;;;;;;;;;;5015548;28;20063;-75
2023/03/21 11:10:36;;;;;;;19.30;12.10;;;;;;;;;;5034611;28;20162;-74
2023/03/21 11:13:07;;;;;;;18.00;11.05;;;;;;;;;;5034707;28;20187;-75
2023/03/21 11:15:52;;;;;;;23.75;13.18;;;;;;;;;;5028837;28;20053;-75
2023/03/21 11:18:19;;;;;;;18.05;11.43;;;;;;;;;;5029332;28;20080;-75
2023/03/21 11:20:56;;;;;;;19.50;13.48;;;;;;;;;;5015656;28;20050;-74
2023/03/21 11:23:26;;;;;;;20.73;12.95;;;;;;;;;;5036064;28;20045;-74
2023/03/21 11:25:52;;;;;;;20.55;11.57;;;;;;;;;;5035435;28;20135;-75
2023/03/21 11:28:20;;;;;;;22.45;13.48;;;;;;;;;;5032695;28;20505;-75
2023/03/21 11:30:57;;;;;;;22.13;11.77;;;;;;;;;;5048145;28;20056;-75
2023/03/21 11:33:26;;;;;;;17.90;12.30;;;;;;;;;;5019532;28;20060;-74
2023/03/21 11:36:06;;;;;;;20.75;13.15;;;;;;;;;;5026502;28;20048;-74
2023/03/21 11:38:37;;;;;;;19.15;12.57;;;;;;;;;;5024877;28;20045;-74
2023/03/21 11:41:03;;;;;;;16.92;10.70;;;;;;;;;;5019306;28;20460;-74
2023/03/21 11:43:39;;;;;;;16.70;12.50;;;;;;;;;;5014823;28;20049;-74
2023/03/21 11:46:05;;;;;;;18.40;10.63;;;;;;;;;;5019262;28;20045;-74
2023/03/21 11:48:44;;;;;;;16.92;11.25;;;;;;;;;;5034412;28;20076;-75
2023/03/21 11:51:30;;;;;;;22.05;12.45;;;;;;;;;;5044604;28;20481;-75
2023/03/21 11:54:06;;;;;;;14.52;9.73;;;;;;;;;;4978928;28;20053;-75
2023/03/21 11:56:34;;;;;;;17.75;11.02;;;;;;;;;;5010907;28;20041;-75
2023/03/21 11:59:14;;;;;;;18.80;11.88;;;;;;;;;;5019975;28;20042;-75
2023/03/21 12:01:59;;;;;;;18.85;12.00;;;;;;;;;;5019924;28;20059;-74
2023/03/21 12:04:45;;;;;;;20.42;12.82;;;;;;;;;;5010793;28;20268;-75
2023/03/21 12:07:32;;;;;;;16.35;10.43;;;;;;;;;;5016556;28;20422;-75
2023/03/21 12:10:16;;;;;;;18.20;10.75;;;;;;;;;;4996342;28;20053;-75
2023/03/21 12:12:52;;;;;;;17.42;11.95;;;;;;;;;;5014293;28;20041;-75
2023/03/21 12:15:21;;;;;;;21.27;12.52;;;;;;;;;;5012912;28;20053;-75
2023/03/21 12:17:55;;;;;;;15.93;11.25;;;;;;;;;;5038098;28;20061;-75
2023/03/21 12:20:21;;;;;;;21.98;13.25;;;;;;;;;;5015944;28;20049;-75
2023/03/21 12:22:53;;;;;;;20.90;11.13;;;;;;;;;;5014228;28;20049;-74
2023/03/21 12:25:26;;;;;;;21.15;12.00;;;;;;;;;;5030609;28;20072;-75
2023/03/21 12:28:11;;;;;;;18.40;12.13;;;;;;;;;;5030071;28;20049;-75
2023/03/21 12:30:46;;;;;;;24.25;13.15;;;;;;;;;;5029292;28;20060;-74
2023/03/21 12:33:32;;;;;;;15.07;11.15;;;;;;;;;;5014929;28;20131;-75
2023/03/21 12:36:07;;;;;;;19.58;11.65;;;;;;;;;;5030453;28;20077;-74
2023/03/21 12:38:42;;;;;;;17.40;11.00;;;;;;;;;;5032347;28;20049;-75
2023/03/21 12:41:12;;;;;;;15.95;12.45;;;;;;;;;;5031361;28;21916;-75
2023/03/21 12:43:44;;;;;;;21.23;12.90;;;;;;;;;;5029766;28;20087;-75
2023/03/21 12:46:30;;;;;;;17.60;12.25;;;;;;;;;;5013927;28;20511;-75
2023/03/21 12:49:05;;;;;;;18.13;12.88;;;;;;;;;;4999299;28;20053;-75
2023/03/21 12:51:40;;;;;;;22.10;13.75;;;;;;;;;;5036148;28;20049;-75
2023/03/21 12:54:14;;;;;;;20.13;13.75;;;;;;;;;;5031298;28;20057;-75
2023/03/21 12:57:04;;;;;;;20.73;14.30;;;;;;;;;;5040314;28;20045;-75
2023/03/21 12:59:49;;;;;;;17.90;13.00;;;;;;;;;;5023323;28;20044;-75
2023/03/21 13:02:25;;;;;;;23.00;13.68;;;;;;;;;;5016124;28;20048;-75
2023/03/21 13:05:20;;;;;;;21.08;12.70;;;;;;;;;;5013303;28;20045;-74
2023/03/21 13:07:53;;;;;;;16.55;10.30;;;;;;;;;;5002846;28;20053;-75
2023/03/21 13:10:21;;;;;;;18.20;11.23;;;;;;;;;;5014916;28;20042;-74
2023/03/21 13:13:12;;;;;;;19.88;10.52;;;;;;;;;;5031197;28;20052;-75
2023/03/21 13:15:47;;;;;;;16.90;9.23;;;;;;;;;;5025898;28;20466;-75
2023/03/21 13:18:13;;;;;;;13.65;8.55;;;;;;;;;;5014148;28;20045;-75
2023/03/21 13:20:59;;;;;;;16.58;8.82;;;;;;;;;;5039220;28;20052;-76
2023/03/21 13:23:32;;;;;;;16.73;9.27;;;;;;;;;;5010510;28;20190;-75
2023/03/21 13:25:58;;;;;;;14.05;7.45;;;;;;;;;;5032350;28;20132;-75
2023/03/21 13:28:29;;;;;;;13.15;8.02;;;;;;;;;;5048767;28;20067;-75
2023/03/21 13:31:14;;;;;;;12.07;7.47;;;;;;;;;;5050953;28;20084;-75
2023/03/21 13:33:43;;;;;;;15.55;8.02;;;;;;;;;;5029397;28;20050;-74
2023/03/21 13:36:14;;;;;;;22.88;8.95;;;;;;;;;;5034585;28;20129;-75
2023/03/21 13:38:40;;;;;;;13.18;7.78;;;;;;;;;;5034252;28;20091;-75
2023/03/21 13:41:06;;;;;;;14.70;8.00;;;;;;;;;;5013422;28;20045;-74
2023/03/21 13:43:41;;;;;;;14.82;8.65;;;;;;;;;;5023089;28;20045;-75
2023/03/21 13:46:11;;;;;;;13.77;8.15;;;;;;;;;;5031838;28;20052;-74
2023/03/21 13:48:54;;;;;;;13.85;7.55;;;;;;;;;;5046168;28;20128;-74
2023/03/21 13:51:40;;;;;;;13.85;7.88;;;;;;;;;;5025693;28;20060;-74
2023/03/21 13:54:06;;;;;;;14.43;6.63;;;;;;;;;;5013184;28;20057;-75
2023/03/21 13:56:52;;;;;;;12.80;6.43;;;;;;;;;;5018856;28;20128;-76
2023/03/21 13:59:18;;;;;;;14.45;6.90;;;;;;;;;;5012014;28;20069;-75
2023/03/21 14:02:04;;;;;;;13.35;6.47;;;;;;;;;;5017087;28;20046;-75
2023/03/21 14:04:31;;;;;;;12.13;5.85;;;;;;;;;;5015441;28;20064;-75
2023/03/21 14:07:09;;;;;;;10.35;5.57;;;;;;;;;;5013784;28;20496;-75
2023/03/21 14:09:37;;;;;;;11.13;5.53;;;;;;;;;;5015619;28;20405;-75
2023/03/21 14:12:06;;;;;;;12.55;6.00;;;;;;;;;;5015676;28;20116;-75
2023/03/21 14:14:43;;;;;;;11.57;6.00;;;;;;;;;;5018014;28;20101;-75
2023/03/21 14:17:13;;;;;;;13.52;6.47;;;;;;;;;;5013619;28;20046;-75
2023/03/21 14:19:39;;;;;;;9.68;6.32;;;;;;;;;;5015698;28;20041;-75
2023/03/21 14:22:10;;;;;;;14.98;7.25;;;;;;;;;;5013707;28;20041;-74
2023/03/21 14:24:36;;;;;;;11.45;7.10;;;;;;;;;;5021972;28;20049;-75
2023/03/21 14:27:04;;;;;;;13.60;7.85;;;;;;;;;;5019455;28;20053;-75
2023/03/21 14:29:33;;;;;;;13.48;7.65;;;;;;;;;;5020353;28;20058;-75
2023/03/21 14:31:59;;;;;;;15.30;7.88;;;;;;;;;;5028847;28;20033;-75
2023/03/21 14:34:30;;;;;;;14.45;8.75;;;;;;;;;;5029389;28;20056;-75
2023/03/21 14:36:57;;;;;;;13.13;8.70;;;;;;;;;;5016414;28;20461;-75